createdAt,value
2017-12-24T00:01:45.714Z,21.20
2017-12-24T00:04:13.338Z,25.10
2017-12-24T00:06:40.915Z,24.63
2017-12-24T00:09:09.243Z,22.50
2017-12-24T00:11:37.587Z,23.80
2017-12-24T00:14:05.188Z,19.53
2017-12-24T00:16:32.788Z,21.37
2017-12-24T00:19:00.464Z,23.20
2017-12-24T00:21:29.541Z,35.93
2017-12-24T00:23:59.324Z,23.53
2017-12-24T00:26:26.864Z,21.73
2017-12-24T00:28:54.418Z,20.40
2017-12-24T00:31:24.580Z,24.20
2017-12-24T00:33:52.240Z,24.17
2017-12-24T00:36:19.780Z,23.57
2017-12-24T00:38:47.340Z,27.20
2017-12-24T00:41:14.884Z,27.87
2017-12-24T00:43:42.419Z,24.97
2017-12-24T00:46:10.741Z,27.87
2017-12-24T00:48:38.281Z,27.40
2017-12-24T00:51:06.612Z,32.40
2017-12-24T00:53:34.235Z,26.10
2017-12-24T00:56:02.566Z,25.93
2017-12-24T00:58:30.107Z,29.37
2017-12-24T01:00:58.429Z,25.53
2017-12-24T01:03:26.025Z,27.63
2017-12-24T01:05:53.620Z,27.70
2017-12-24T01:08:21.164Z,28.77
2017-12-24T01:10:48.750Z,25.57
2017-12-24T01:13:16.300Z,30.23
2017-12-24T01:15:43.864Z,28.13
2017-12-24T01:18:11.402Z,25.47
2017-12-24T01:20:38.972Z,32.00
2017-12-24T01:23:06.555Z,28.90
2017-12-24T01:25:34.096Z,32.70
2017-12-24T01:28:01.653Z,36.07
2017-12-24T01:30:29.204Z,30.67
2017-12-24T01:32:56.760Z,30.83
2017-12-24T01:35:24.296Z,31.13
2017-12-24T01:37:52.616Z,31.50
2017-12-24T01:40:20.151Z,35.50
2017-12-24T01:42:48.482Z,24.50
2017-12-24T01:45:16.020Z,30.17
2017-12-24T01:47:51.099Z,31.53
2017-12-24T01:50:18.640Z,34.20
2017-12-24T01:52:46.200Z,31.97
2017-12-24T01:55:14.508Z,28.17
2017-12-24T01:57:42.105Z,28.40
2017-12-24T02:00:09.644Z,30.60
2017-12-24T02:02:37.195Z,31.73
2017-12-24T02:05:04.763Z,30.90
2017-12-24T02:07:32.309Z,30.50
2017-12-24T02:09:59.862Z,28.67
2017-12-24T02:12:27.404Z,32.00
2017-12-24T02:14:54.968Z,30.87
2017-12-24T02:17:22.516Z,33.87
2017-12-24T02:19:50.077Z,24.90
2017-12-24T02:22:17.607Z,31.43
2017-12-24T02:24:45.180Z,28.00
2017-12-24T02:27:12.722Z,28.60
2017-12-24T02:29:41.057Z,33.90
2017-12-24T02:32:08.620Z,35.10
2017-12-24T02:34:36.191Z,33.73
2017-12-24T02:37:03.739Z,28.87
2017-12-24T02:39:31.285Z,29.47
2017-12-24T02:41:59.670Z,26.03
2017-12-24T02:44:27.186Z,28.97
2017-12-24T02:46:54.744Z,29.47
2017-12-24T02:49:22.288Z,31.60
2017-12-24T02:51:50.610Z,34.93
2017-12-24T02:54:18.186Z,30.57
2017-12-24T02:56:45.748Z,36.07
2017-12-24T02:59:13.296Z,29.53
2017-12-24T03:01:41.632Z,28.73
2017-12-24T03:04:09.177Z,41.30
2017-12-24T03:06:36.768Z,32.10
2017-12-24T03:09:04.320Z,33.77
2017-12-24T03:11:32.696Z,34.13
2017-12-24T03:14:01.005Z,31.97
2017-12-24T03:16:28.548Z,27.47
2017-12-24T03:18:56.130Z,29.93
2017-12-24T03:21:24.439Z,35.10
2017-12-24T03:23:52.001Z,29.00
2017-12-24T03:26:20.629Z,38.70
2017-12-24T03:28:48.241Z,37.67
2017-12-24T03:31:15.779Z,33.30
2017-12-24T03:33:43.340Z,38.53
2017-12-24T03:36:10.886Z,36.93
2017-12-24T03:38:39.213Z,44.50
2017-12-24T03:41:06.768Z,44.07
2017-12-24T03:43:34.329Z,43.27
2017-12-24T03:46:01.882Z,41.43
2017-12-24T03:48:30.213Z,39.47
2017-12-24T03:50:57.758Z,38.70
2017-12-24T03:53:25.324Z,34.87
2017-12-24T03:55:52.907Z,44.03
2017-12-24T03:58:20.452Z,37.83
2017-12-24T04:00:48.789Z,32.60
2017-12-24T04:03:18.251Z,28.80
2017-12-24T04:05:45.821Z,26.60
2017-12-24T04:08:13.364Z,33.10
2017-12-24T04:10:40.928Z,29.13
2017-12-24T04:13:08.468Z,35.20
2017-12-24T04:15:36.037Z,30.33
2017-12-24T04:18:03.575Z,29.97
2017-12-24T04:20:31.136Z,33.67
2017-12-24T04:22:58.679Z,24.77
2017-12-24T04:25:26.237Z,34.53
2017-12-24T04:27:53.850Z,34.73
2017-12-24T04:30:21.400Z,25.90
2017-12-24T04:32:48.945Z,28.50
2017-12-24T04:35:16.489Z,30.13
2017-12-24T04:37:44.820Z,38.60
2017-12-24T04:40:12.365Z,27.93
2017-12-24T04:42:39.932Z,32.17
2017-12-24T04:45:08.288Z,36.37
2017-12-24T04:47:35.923Z,36.57
2017-12-24T04:50:03.469Z,38.70
2017-12-24T04:52:31.029Z,33.53
2017-12-24T04:54:59.336Z,40.50
2017-12-24T04:57:26.897Z,38.70
2017-12-24T04:59:55.205Z,36.63
2017-12-24T05:02:22.772Z,36.40
2017-12-24T05:04:50.314Z,38.73
2017-12-24T05:07:17.879Z,44.20
2017-12-24T05:09:45.437Z,47.50
2017-12-24T05:12:13.021Z,36.80
2017-12-24T05:14:40.569Z,35.53
2017-12-24T05:17:08.113Z,35.23
2017-12-24T05:19:35.674Z,36.30
2017-12-24T05:22:03.221Z,31.10
2017-12-24T05:24:31.556Z,29.10
2017-12-24T05:26:59.105Z,34.57
2017-12-24T05:29:26.674Z,35.10
2017-12-24T05:31:54.217Z,31.90
2017-12-24T05:34:21.785Z,27.70
2017-12-24T05:36:49.331Z,29.60
2017-12-24T05:39:17.666Z,35.50
2017-12-24T05:41:45.971Z,32.77
2017-12-24T05:44:13.545Z,39.17
2017-12-24T05:46:41.084Z,35.37
2017-12-24T05:49:09.389Z,38.53
2017-12-24T05:51:37.720Z,33.37
2017-12-24T05:54:05.261Z,40.23
2017-12-24T05:56:32.841Z,38.80
2017-12-24T05:59:00.393Z,41.17
2017-12-24T06:01:28.720Z,40.13
2017-12-24T06:03:56.281Z,38.67
2017-12-24T06:06:23.874Z,40.40
2017-12-24T06:08:51.418Z,47.80
2017-12-24T06:11:18.981Z,44.73
2017-12-24T06:13:46.520Z,46.77
2017-12-24T06:16:14.080Z,51.90
2017-12-24T06:18:41.622Z,50.20
2017-12-24T06:21:09.213Z,44.00
2017-12-24T06:23:36.765Z,59.40
2017-12-24T06:26:04.341Z,52.43
2017-12-24T06:28:31.912Z,50.17
2017-12-24T06:30:59.456Z,60.37
2017-12-24T06:33:27.020Z,59.60
2017-12-24T06:35:54.562Z,53.03
2017-12-24T06:38:22.129Z,55.87
2017-12-24T06:40:49.672Z,52.87
2017-12-24T06:43:17.232Z,62.60
2017-12-24T06:45:44.784Z,49.00
2017-12-24T06:48:12.346Z,58.13
2017-12-24T06:50:39.892Z,60.97
2017-12-24T06:53:07.461Z,51.23
2017-12-24T06:55:35.004Z,57.03
2017-12-24T06:58:02.564Z,51.43
2017-12-24T07:00:30.108Z,39.07
2017-12-24T07:02:57.675Z,46.10
2017-12-24T07:05:25.221Z,41.10
2017-12-24T07:07:52.762Z,45.83
2017-12-24T07:10:20.362Z,42.60
2017-12-24T07:12:47.904Z,45.37
2017-12-24T07:15:15.464Z,45.80
2017-12-24T07:17:43.005Z,51.70
2017-12-24T07:20:10.580Z,42.57
2017-12-24T07:22:39.017Z,39.97
2017-12-24T07:25:06.580Z,48.67
2017-12-24T07:27:34.298Z,40.67
2017-12-24T07:30:01.866Z,38.63
2017-12-24T07:32:30.182Z,42.97
2017-12-24T07:34:57.744Z,42.83
2017-12-24T07:37:26.049Z,42.73
2017-12-24T07:39:53.589Z,37.57
2017-12-24T07:42:21.925Z,35.87
2017-12-24T07:44:49.468Z,48.27
2017-12-24T07:47:17.050Z,49.40
2017-12-24T07:49:44.596Z,38.00
2017-12-24T07:52:12.929Z,40.07
2017-12-24T07:54:40.478Z,39.27
2017-12-24T07:57:08.038Z,45.10
2017-12-24T07:59:36.350Z,33.97
2017-12-24T08:02:03.916Z,35.97
2017-12-24T08:04:31.454Z,36.00
2017-12-24T08:06:59.781Z,31.67
2017-12-24T08:09:27.360Z,38.77
2017-12-24T08:11:54.929Z,31.13
2017-12-24T08:14:22.520Z,35.07
2017-12-24T08:16:50.097Z,35.67
2017-12-24T08:19:17.664Z,29.73
2017-12-24T08:21:45.310Z,36.13
2017-12-24T08:24:12.874Z,31.90
2017-12-24T08:26:40.419Z,34.20
2017-12-24T08:29:07.981Z,29.03
2017-12-24T08:31:35.557Z,32.37
2017-12-24T08:34:03.210Z,26.90
2017-12-24T08:36:30.851Z,29.30
2017-12-24T08:38:58.454Z,29.53
2017-12-24T08:41:26.006Z,38.90
2017-12-24T08:43:53.600Z,30.93
2017-12-24T08:46:21.937Z,27.80
2017-12-24T08:48:49.500Z,28.30
2017-12-24T08:51:17.805Z,23.73
2017-12-24T08:53:45.364Z,28.03
2017-12-24T08:56:13.718Z,28.93
2017-12-24T08:58:41.284Z,24.43
2017-12-24T09:01:11.244Z,24.43
2017-12-24T09:03:39.704Z,21.33
2017-12-24T09:06:07.288Z,16.00
2017-12-24T09:08:34.836Z,18.17
2017-12-24T09:11:02.408Z,13.23
2017-12-24T09:13:29.954Z,16.57
2017-12-24T09:15:57.542Z,15.97
2017-12-24T09:18:25.104Z,21.87
2017-12-24T09:20:52.680Z,20.73
2017-12-24T09:23:35.059Z,20.13
2017-12-24T09:26:02.650Z,17.67
2017-12-24T09:28:30.211Z,22.33
2017-12-24T09:30:57.792Z,19.77
2017-12-24T09:33:25.343Z,18.50
2017-12-24T09:35:53.642Z,17.77
2017-12-24T09:38:21.264Z,15.70
2017-12-24T09:40:48.828Z,16.37
2017-12-24T09:43:16.628Z,17.77
2017-12-24T09:45:44.172Z,14.67
2017-12-24T09:48:11.724Z,21.90
2017-12-24T09:50:39.264Z,21.93
2017-12-24T09:53:06.917Z,25.80
2017-12-24T09:55:34.507Z,27.70
2017-12-24T09:58:02.514Z,22.63
2017-12-24T10:00:30.870Z,27.40
2017-12-24T10:02:58.504Z,21.03
2017-12-24T10:05:26.324Z,26.37
2017-12-24T10:07:53.937Z,24.80
2017-12-24T10:10:22.248Z,23.07
2017-12-24T10:12:49.833Z,23.97
2017-12-24T10:15:17.387Z,20.50
2017-12-24T10:17:44.923Z,22.90
2017-12-24T10:20:12.504Z,21.00
2017-12-24T10:22:40.820Z,19.13
2017-12-24T10:25:08.384Z,28.97
2017-12-24T10:27:35.927Z,22.27
2017-12-24T10:30:03.484Z,24.03
2017-12-24T10:32:31.037Z,25.63
2017-12-24T10:34:58.624Z,27.60
2017-12-24T10:37:26.176Z,27.43
2017-12-24T10:39:53.744Z,28.00
2017-12-24T10:42:21.303Z,29.00
2017-12-24T10:44:48.878Z,25.23
2017-12-24T10:47:16.432Z,28.47
2017-12-24T10:49:44.004Z,28.00
2017-12-24T10:52:11.540Z,25.97
2017-12-24T10:54:39.126Z,25.50
2017-12-24T10:57:07.440Z,24.47
2017-12-24T10:59:35.645Z,25.93
2017-12-24T11:02:04.126Z,27.43
2017-12-24T11:04:31.684Z,27.17
2017-12-24T11:07:00.013Z,24.77
2017-12-24T11:09:27.615Z,27.40
2017-12-24T11:11:55.195Z,27.70
2017-12-24T11:14:23.528Z,25.30
2017-12-24T11:16:51.100Z,28.60
2017-12-24T11:19:18.672Z,40.30
2017-12-24T11:21:46.241Z,35.30
2017-12-24T11:24:13.784Z,31.00
2017-12-24T11:26:42.113Z,26.67
2017-12-24T11:29:09.658Z,22.97
2017-12-24T11:31:37.257Z,29.90
2017-12-24T11:34:04.823Z,29.20
2017-12-24T11:36:32.429Z,30.30
2017-12-24T11:38:59.978Z,28.27
2017-12-24T11:41:27.607Z,32.40
2017-12-24T11:43:55.941Z,35.90
2017-12-24T11:46:23.665Z,35.80
2017-12-24T11:48:52.017Z,34.00
2017-12-24T11:51:19.562Z,31.37
2017-12-24T11:53:47.191Z,38.43
2017-12-24T11:56:14.708Z,41.90
2017-12-24T11:58:42.272Z,43.10
2017-12-24T12:01:09.808Z,41.33
2017-12-24T12:03:37.380Z,42.80
2017-12-24T12:06:04.964Z,44.17
2017-12-24T12:08:33.306Z,41.53
2017-12-24T12:11:00.849Z,42.03
2017-12-24T12:13:28.423Z,47.80
2017-12-24T12:15:56.002Z,42.57
2017-12-24T12:18:23.577Z,52.20
2017-12-24T12:20:51.149Z,43.70
2017-12-24T12:23:18.726Z,48.70
2017-12-24T12:25:46.273Z,46.50
2017-12-24T12:28:14.692Z,49.97
2017-12-24T12:30:42.298Z,48.60
2017-12-24T12:33:09.841Z,47.53
2017-12-24T12:35:37.405Z,44.40
2017-12-24T12:38:05.049Z,38.97
2017-12-24T12:40:32.953Z,42.43
2017-12-24T12:43:00.664Z,40.37
2017-12-24T12:45:28.232Z,36.03
2017-12-24T12:47:55.783Z,36.63
2017-12-24T12:50:23.359Z,33.70
2017-12-24T12:52:50.901Z,39.23
2017-12-24T12:55:18.473Z,36.20
2017-12-24T12:57:46.032Z,30.07
2017-12-24T13:00:14.352Z,29.80
2017-12-24T13:02:41.922Z,31.27
2017-12-24T13:05:09.528Z,26.90
2017-12-24T13:07:37.125Z,23.83
2017-12-24T13:10:04.769Z,24.40
2017-12-24T13:12:32.567Z,24.43
2017-12-24T13:15:00.150Z,21.03
2017-12-24T13:17:27.921Z,28.50
2017-12-24T13:19:55.821Z,24.53
2017-12-24T13:22:23.432Z,17.40
2017-12-24T13:24:51.005Z,16.70
2017-12-24T13:27:18.581Z,17.47
2017-12-24T13:29:46.278Z,27.03
2017-12-24T13:32:13.900Z,25.13
2017-12-24T13:34:41.648Z,24.50
2017-12-24T13:37:10.075Z,26.13
2017-12-24T13:39:38.726Z,22.03
2017-12-24T13:42:06.268Z,28.13
2017-12-24T13:44:33.899Z,25.60
2017-12-24T13:47:01.501Z,21.50
2017-12-24T13:49:29.586Z,25.70
2017-12-24T13:51:57.691Z,19.57
2017-12-24T13:54:25.405Z,22.03
2017-12-24T13:56:55.142Z,29.93
2017-12-24T13:59:22.853Z,24.53
2017-12-24T14:01:50.424Z,22.83
2017-12-24T14:04:18.013Z,26.57
2017-12-24T14:06:45.574Z,30.53
2017-12-24T14:09:13.176Z,28.17
2017-12-24T14:11:40.721Z,35.03
2017-12-24T14:14:08.284Z,28.90
2017-12-24T14:16:35.839Z,31.47
2017-12-24T14:19:03.392Z,27.60
2017-12-24T14:21:30.989Z,27.80
2017-12-24T14:23:58.757Z,36.57
2017-12-24T14:26:26.525Z,25.50
2017-12-24T14:28:55.052Z,26.43
2017-12-24T14:31:22.628Z,27.00
2017-12-24T14:33:50.229Z,24.40
2017-12-24T14:36:17.836Z,26.20
2017-12-24T14:38:46.236Z,22.87
2017-12-24T14:41:13.801Z,24.00
2017-12-24T14:43:42.160Z,22.20
2017-12-24T14:46:09.752Z,19.83
2017-12-24T14:48:38.084Z,21.73
2017-12-24T14:51:05.660Z,23.03
2017-12-24T14:53:33.316Z,22.33
2017-12-24T14:56:00.881Z,21.40
2017-12-24T14:58:28.442Z,21.80
2017-12-24T15:00:56.751Z,20.33
2017-12-24T15:03:30.624Z,18.73
2017-12-24T15:05:58.212Z,25.70
2017-12-24T15:08:26.547Z,22.17
2017-12-24T15:10:54.111Z,21.83
2017-12-24T15:13:22.461Z,22.53
2017-12-24T15:15:50.970Z,23.87
2017-12-24T15:18:18.579Z,17.17
2017-12-24T15:20:48.080Z,18.43
2017-12-24T15:23:15.644Z,18.20
2017-12-24T15:25:43.183Z,20.60
2017-12-24T15:28:10.739Z,17.30
2017-12-24T15:30:38.292Z,24.77
2017-12-24T15:33:05.845Z,20.27
2017-12-24T15:35:33.410Z,21.80
2017-12-24T15:38:01.029Z,22.87
2017-12-24T15:40:29.710Z,17.40
2017-12-24T15:42:57.284Z,15.87
2017-12-24T15:45:24.912Z,19.30
2017-12-24T15:47:54.758Z,14.20
2017-12-24T15:50:22.698Z,14.40
2017-12-24T15:52:51.569Z,13.77
2017-12-24T15:55:20.057Z,13.70
2017-12-24T15:57:47.681Z,16.13
2017-12-24T16:00:17.064Z,10.07
2017-12-24T16:02:46.193Z,12.37
2017-12-24T16:05:13.757Z,9.90
2017-12-24T16:07:42.645Z,10.77
2017-12-24T16:10:11.165Z,9.40
2017-12-24T16:12:40.122Z,8.60
2017-12-24T16:15:07.759Z,9.43
2017-12-24T16:17:35.335Z,8.80
2017-12-24T16:20:03.760Z,8.23
2017-12-24T16:22:31.399Z,8.77
2017-12-24T16:24:59.107Z,10.30
2017-12-24T16:27:26.652Z,10.53
2017-12-24T16:29:54.231Z,8.83
2017-12-24T16:32:21.760Z,7.93
2017-12-24T16:34:50.130Z,8.90
2017-12-24T16:37:17.783Z,10.20
2017-12-24T16:39:46.194Z,10.13
2017-12-24T16:42:13.994Z,6.03
2017-12-24T16:44:42.374Z,10.70
2017-12-24T16:47:10.005Z,7.37
2017-12-24T16:49:37.558Z,10.73
2017-12-24T16:52:05.885Z,10.43
2017-12-24T16:54:33.430Z,8.07
2017-12-24T16:57:01.061Z,9.13
2017-12-24T16:59:28.681Z,10.57
2017-12-24T17:01:56.323Z,6.80
2017-12-24T17:04:24.688Z,8.63
2017-12-24T17:06:52.324Z,9.57
2017-12-24T17:09:19.921Z,5.07
2017-12-24T17:11:47.526Z,7.13
2017-12-24T17:14:15.932Z,6.77
2017-12-24T17:16:44.237Z,9.90
2017-12-24T17:19:11.795Z,7.90
2017-12-24T17:21:40.215Z,7.17
2017-12-24T17:24:07.905Z,6.60
2017-12-24T17:26:35.603Z,8.50
2017-12-24T17:29:03.241Z,10.67
2017-12-24T17:31:31.797Z,5.40
2017-12-24T17:33:59.463Z,10.03
2017-12-24T17:36:27.839Z,9.90
2017-12-24T17:38:55.479Z,8.73
2017-12-24T17:41:23.095Z,8.73
2017-12-24T17:43:51.555Z,13.23
2017-12-24T17:46:20.039Z,14.83
2017-12-24T17:48:47.679Z,15.60
2017-12-24T17:51:15.335Z,11.73
2017-12-24T17:53:43.775Z,14.20
2017-12-24T17:56:11.348Z,15.87
2017-12-24T17:58:38.881Z,14.33
2017-12-24T18:01:07.281Z,21.03
2017-12-24T18:03:34.894Z,13.00
2017-12-24T18:06:02.530Z,16.00
2017-12-24T18:08:30.141Z,16.07
2017-12-24T18:10:58.076Z,20.30
2017-12-24T18:13:25.716Z,19.03
2017-12-24T18:15:53.380Z,15.70
2017-12-24T18:18:20.998Z,16.23
2017-12-24T18:20:48.638Z,18.57
2017-12-24T18:23:16.288Z,14.70
2017-12-24T18:25:43.860Z,13.53
2017-12-24T18:28:11.392Z,14.60
2017-12-24T18:30:39.682Z,16.17
2017-12-24T18:33:07.990Z,16.67
2017-12-24T18:35:35.528Z,13.33
2017-12-24T18:38:03.860Z,11.37
2017-12-24T18:40:32.165Z,14.83
2017-12-24T18:42:59.867Z,14.73
2017-12-24T18:45:27.481Z,16.93
2017-12-24T18:47:55.046Z,12.83
2017-12-24T18:50:22.593Z,11.97
2017-12-24T18:52:50.925Z,11.07
2017-12-24T18:55:18.648Z,10.27
2017-12-24T18:57:47.052Z,15.00
2017-12-24T19:00:14.602Z,14.73
2017-12-24T19:02:42.349Z,13.13
2017-12-24T19:05:10.109Z,10.40
2017-12-24T19:07:37.717Z,10.73
2017-12-24T19:10:05.451Z,12.90
2017-12-24T19:12:33.190Z,15.20
2017-12-24T19:15:01.649Z,13.17
2017-12-24T19:17:31.301Z,10.73
2017-12-24T19:19:59.689Z,11.80
2017-12-24T19:22:28.150Z,13.03
2017-12-24T19:24:55.750Z,13.00
2017-12-24T19:27:23.296Z,12.97
2017-12-24T19:29:51.170Z,13.60
2017-12-24T19:32:19.101Z,11.60
2017-12-24T19:34:47.818Z,19.53
2017-12-24T19:37:15.717Z,12.60
2017-12-24T19:39:43.459Z,13.10
2017-12-24T19:42:11.034Z,13.80
2017-12-24T19:44:39.603Z,16.53
2017-12-24T19:47:08.177Z,14.37
2017-12-24T19:49:36.742Z,15.47
2017-12-24T19:52:04.462Z,13.93
2017-12-24T19:54:32.354Z,16.73
2017-12-24T19:57:00.183Z,10.70
2017-12-24T19:59:27.964Z,13.47
2017-12-24T20:01:55.715Z,12.67
2017-12-24T20:04:23.469Z,16.67
2017-12-24T20:06:51.310Z,15.47
2017-12-24T20:09:19.009Z,16.37
2017-12-24T20:11:47.592Z,16.57
2017-12-24T20:14:22.143Z,14.40
2017-12-24T20:16:49.953Z,14.70
2017-12-24T20:19:17.519Z,17.33
2017-12-24T20:21:45.853Z,16.77
2017-12-24T20:24:13.410Z,19.60
2017-12-24T20:26:41.893Z,14.10
2017-12-24T20:29:09.478Z,16.03
2017-12-24T20:31:37.054Z,19.33
2017-12-24T20:34:04.601Z,15.30
2017-12-24T20:36:32.176Z,15.23
2017-12-24T20:38:59.731Z,16.70
2017-12-24T20:41:28.199Z,19.60
2017-12-24T20:43:56.029Z,17.97
2017-12-24T20:46:23.788Z,21.00
2017-12-24T20:48:51.582Z,18.23
2017-12-24T20:51:19.486Z,16.80
2017-12-24T20:53:47.218Z,16.77
2017-12-24T20:56:15.009Z,17.10
2017-12-24T20:58:43.618Z,17.00
2017-12-24T21:01:11.205Z,16.47
2017-12-24T21:03:39.022Z,17.83
2017-12-24T21:06:07.462Z,19.80
2017-12-24T21:08:36.008Z,17.43
2017-12-24T21:11:04.515Z,18.73
2017-12-24T21:13:32.403Z,16.23
2017-12-24T21:15:59.978Z,17.10
2017-12-24T21:18:27.548Z,16.93
2017-12-24T21:20:55.133Z,19.60
2017-12-24T21:23:23.467Z,14.93
2017-12-24T21:25:51.010Z,18.40
2017-12-24T21:28:18.557Z,19.47
2017-12-24T21:30:46.129Z,22.00
2017-12-24T21:33:13.673Z,21.90
2017-12-24T21:35:41.237Z,21.93
2017-12-24T21:38:08.780Z,17.70
2017-12-24T21:40:36.350Z,22.33
2017-12-24T21:43:03.894Z,19.40
2017-12-24T21:45:31.464Z,23.77
2017-12-24T21:47:59.004Z,21.67
2017-12-24T21:50:27.337Z,22.37
2017-12-24T21:52:54.889Z,25.27
2017-12-24T21:55:22.456Z,18.93
2017-12-24T21:57:50.002Z,22.50
2017-12-24T22:00:17.544Z,21.33
2017-12-24T22:02:45.117Z,23.30
2017-12-24T22:05:12.889Z,23.13
2017-12-24T22:07:41.476Z,22.20
2017-12-24T22:10:09.158Z,23.63
2017-12-24T22:12:36.939Z,24.47
2017-12-24T22:15:04.702Z,21.67
2017-12-24T22:17:32.496Z,22.17
2017-12-24T22:20:01.053Z,23.50
2017-12-24T22:22:28.843Z,23.00
2017-12-24T22:24:56.825Z,22.77
2017-12-24T22:27:24.565Z,25.70
2017-12-24T22:29:53.424Z,23.80
2017-12-24T22:32:21.527Z,21.87
2017-12-24T22:34:49.452Z,20.00
2017-12-24T22:37:17.149Z,23.43
2017-12-24T22:39:49.436Z,22.57
2017-12-24T22:42:17.226Z,23.63
2017-12-24T22:44:44.854Z,23.70
2017-12-24T22:47:12.641Z,25.33
2017-12-24T22:49:40.472Z,22.90
2017-12-24T22:52:08.987Z,27.13
2017-12-24T22:54:37.469Z,24.70
2017-12-24T22:57:05.802Z,26.97
2017-12-24T22:59:33.404Z,25.03
2017-12-24T23:02:00.945Z,22.87
2017-12-24T23:04:28.594Z,25.63
2017-12-24T23:07:02.162Z,25.63
2017-12-24T23:09:29.859Z,22.43
2017-12-24T23:11:58.328Z,27.93
2017-12-24T23:14:27.149Z,30.23
2017-12-24T23:16:54.745Z,35.87
2017-12-24T23:19:23.972Z,27.43
2017-12-24T23:21:51.605Z,24.27
2017-12-24T23:24:19.177Z,32.57
2017-12-24T23:26:47.528Z,25.77
2017-12-24T23:29:15.076Z,24.97
2017-12-24T23:31:45.793Z,23.60
2017-12-24T23:34:13.484Z,25.47
2017-12-24T23:36:42.017Z,22.27
2017-12-24T23:39:09.636Z,28.37
2017-12-24T23:41:37.728Z,25.50
2017-12-24T23:44:05.272Z,25.20
2017-12-24T23:46:32.931Z,25.47
2017-12-24T23:49:00.505Z,27.80
2017-12-24T23:51:28.116Z,32.63
2017-12-24T23:53:56.474Z,27.97
2017-12-24T23:56:24.118Z,32.07
2017-12-24T23:58:51.709Z,31.90
